createdAt,value
2024-02-20T01:53:12.892Z,10.85
2024-02-20T02:00:14.680Z,12.80
2024-02-20T02:07:16.317Z,16.75
2024-02-20T02:14:18.013Z,12.45
2024-02-20T02:21:19.921Z,14.88
2024-02-20T02:28:22.114Z,11.05
2024-02-20T03:41:43.783Z,14.00
2024-02-20T03:48:45.487Z,7.90
2024-02-20T03:55:47.150Z,8.77
2024-02-20T04:02:48.746Z,8.32
2024-02-20T04:09:50.338Z,8.88
2024-02-20T04:16:52.896Z,8.65
2024-02-20T04:23:54.507Z,10.40
2024-02-20T04:30:56.099Z,8.50
2024-02-20T05:40:13.822Z,4.13
2024-02-20T05:47:15.518Z,8.02
2024-02-20T05:54:17.196Z,4.32
2024-02-20T06:01:19.240Z,3.10
2024-02-20T06:08:20.972Z,3.05
2024-02-20T06:15:25.171Z,2.58
2024-02-20T06:22:26.840Z,2.45
2024-02-20T06:29:28.833Z,3.83
2024-02-20T06:36:30.476Z,4.03
2024-02-20T06:43:32.199Z,5.03
2024-02-20T06:50:33.860Z,5.20
2024-02-20T06:57:36.478Z,7.95
2024-02-20T07:04:40.301Z,4.35
2024-02-20T07:11:48.146Z,6.30
2024-02-20T07:18:49.792Z,3.75
2024-02-20T07:25:51.450Z,6.15
2024-02-20T07:32:53.274Z,8.25
2024-02-20T07:39:55.020Z,4.30
2024-02-20T07:46:56.578Z,8.55
2024-02-20T07:53:58.221Z,4.18
2024-02-20T08:01:00.036Z,5.57
2024-02-20T08:08:02.025Z,6.80
2024-02-20T08:15:03.989Z,6.15
2024-02-20T08:22:05.684Z,2.45
2024-02-20T08:29:09.437Z,3.10
2024-02-20T09:49:12.404Z,10.38
2024-02-20T09:56:15.422Z,15.27
2024-02-20T10:03:17.074Z,13.25
2024-02-20T10:10:18.674Z,7.07
2024-02-20T10:17:20.651Z,12.57
2024-02-20T10:24:27.967Z,7.95
2024-02-20T10:31:36.225Z,12.60
2024-02-20T10:38:40.787Z,8.48
2024-02-20T10:45:45.822Z,10.40
2024-02-20T10:52:47.513Z,14.15
2024-02-20T10:59:51.080Z,10.65
2024-02-20T11:06:52.704Z,11.00
2024-02-20T11:13:57.235Z,4.97
2024-02-20T11:21:06.852Z,13.48
2024-02-20T11:28:15.764Z,9.63
2024-02-20T11:35:29.019Z,12.20
2024-02-20T11:42:30.673Z,11.90
2024-02-20T11:49:35.017Z,7.57
2024-02-20T11:56:37.257Z,10.60
2024-02-20T12:03:39.351Z,15.45
2024-02-20T12:10:41.697Z,11.38
2024-02-20T12:17:47.053Z,10.20
2024-02-20T12:24:48.953Z,12.13
2024-02-20T12:31:50.676Z,11.07
2024-02-20T13:37:40.470Z,7.40
2024-02-20T13:44:42.126Z,8.15
2024-02-20T13:51:43.790Z,14.40
2024-02-20T13:58:45.892Z,10.15
2024-02-20T14:05:47.759Z,17.50
2024-02-20T14:12:49.450Z,11.57
2024-02-20T14:19:51.237Z,10.68
2024-02-20T14:26:52.999Z,18.63
2024-02-20T14:33:54.770Z,13.95
2024-02-20T14:40:56.664Z,14.88
2024-02-20T14:47:58.419Z,16.05
2024-02-20T14:55:00.060Z,13.77
2024-02-20T15:02:01.701Z,15.57
2024-02-20T15:09:03.515Z,15.90
2024-02-20T15:16:05.256Z,15.90
2024-02-20T15:23:06.888Z,13.73
2024-02-20T15:30:09.249Z,6.07
2024-02-20T16:41:03.178Z,14.73
2024-02-20T16:48:05.727Z,16.55
2024-02-20T16:55:07.735Z,18.13
2024-02-20T17:02:09.459Z,14.35
2024-02-20T17:09:11.097Z,18.83
2024-02-20T17:16:13.934Z,19.45
2024-02-20T17:23:17.246Z,13.43
2024-02-20T17:30:19.381Z,11.98
2024-02-20T17:37:21.005Z,11.00
2024-02-20T17:44:23.331Z,14.50
2024-02-20T17:51:27.979Z,18.58
2024-02-20T17:58:29.676Z,13.73
2024-02-20T18:05:31.428Z,17.23
2024-02-20T18:12:33.180Z,15.60
2024-02-20T18:19:35.355Z,18.25
2024-02-20T18:26:36.973Z,20.00
2024-02-20T18:33:38.600Z,19.20
2024-02-20T18:40:40.426Z,16.58
2024-02-20T18:47:42.403Z,16.13
2024-02-20T18:54:44.303Z,19.80
2024-02-20T19:01:49.665Z,13.13
2024-02-20T19:08:51.338Z,23.33
2024-02-20T19:15:52.934Z,17.38
2024-02-20T19:22:54.619Z,20.58
2024-02-20T19:29:57.675Z,18.92
2024-02-20T20:53:31.296Z,17.65
2024-02-20T21:00:37.744Z,17.60
2024-02-20T21:07:39.496Z,19.58
2024-02-20T21:14:41.512Z,17.17
2024-02-20T21:21:44.252Z,22.38
2024-02-20T21:28:46.743Z,20.27
2024-02-20T21:35:48.501Z,20.42
2024-02-20T21:42:50.155Z,16.65
2024-02-20T21:49:51.771Z,14.50
2024-02-20T21:56:53.486Z,19.35
2024-02-20T22:03:55.107Z,20.70
2024-02-20T22:10:59.435Z,13.30
2024-02-20T22:18:01.209Z,17.45
2024-02-20T22:25:02.814Z,16.80
